createdAt,value
2023-01-26T00:02:15.834Z,55.53
2023-01-26T00:04:44.278Z,65.63
2023-01-26T00:07:12.638Z,64.53
2023-01-26T00:09:41.033Z,61.90
2023-01-26T00:12:09.734Z,70.50
2023-01-26T00:14:50.797Z,68.60
2023-01-26T00:17:26.886Z,56.53
2023-01-26T00:19:56.015Z,62.10
2023-01-26T00:22:24.480Z,68.50
2023-01-26T00:24:52.817Z,69.50
2023-01-26T00:27:21.199Z,62.07
2023-01-26T00:29:49.524Z,62.50
2023-01-26T00:32:17.900Z,68.83
2023-01-26T00:34:48.068Z,65.07
2023-01-26T00:37:16.438Z,67.27
2023-01-26T00:39:44.818Z,74.67
2023-01-26T00:42:13.967Z,76.60
2023-01-26T00:44:42.735Z,69.77
2023-01-26T00:47:11.624Z,69.07
2023-01-26T00:49:39.990Z,66.00
2023-01-26T00:52:09.706Z,68.40
2023-01-26T00:54:38.059Z,73.10
2023-01-26T00:57:06.398Z,77.03
2023-01-26T00:59:34.868Z,75.80
2023-01-26T01:02:03.269Z,77.77
2023-01-26T01:04:31.773Z,73.80
2023-01-26T01:07:00.264Z,77.60
2023-01-26T01:09:30.390Z,67.67
2023-01-26T01:11:58.784Z,73.03
2023-01-26T01:14:27.196Z,74.73
2023-01-26T01:16:55.719Z,77.03
2023-01-26T01:19:24.071Z,69.20
2023-01-26T01:21:52.461Z,75.57
2023-01-26T01:24:20.846Z,74.97
2023-01-26T01:26:50.693Z,77.37
2023-01-26T01:29:19.066Z,76.40
2023-01-26T01:31:47.644Z,84.20
2023-01-26T01:34:16.195Z,81.73
2023-01-26T01:36:44.539Z,83.27
2023-01-26T01:39:12.947Z,86.40
2023-01-26T01:41:42.360Z,83.97
2023-01-26T01:44:18.973Z,80.27
2023-01-26T01:46:51.250Z,76.37
2023-01-26T01:49:20.080Z,80.90
2023-01-26T01:51:49.934Z,79.80
2023-01-26T01:54:19.296Z,80.53
2023-01-26T01:56:48.487Z,84.37
2023-01-26T01:59:20.662Z,88.17
2023-01-26T02:01:49.214Z,84.87
2023-01-26T02:04:17.632Z,88.37
2023-01-26T02:06:48.452Z,93.83
2023-01-26T02:09:30.711Z,85.83
2023-01-26T02:11:59.130Z,94.83
2023-01-26T02:14:28.946Z,87.73
2023-01-26T02:16:57.423Z,86.53
2023-01-26T02:19:27.320Z,88.97
2023-01-26T02:21:55.701Z,83.37
2023-01-26T02:24:24.542Z,84.40
2023-01-26T02:26:54.666Z,78.43
2023-01-26T02:29:23.117Z,85.60
2023-01-26T02:31:53.546Z,87.50
2023-01-26T02:34:22.035Z,91.13
2023-01-26T02:36:57.936Z,80.33
2023-01-26T02:39:29.334Z,94.30
2023-01-26T02:42:16.362Z,82.10
2023-01-26T02:44:44.870Z,90.27
2023-01-26T02:47:14.005Z,89.00
2023-01-26T02:49:47.311Z,87.47
2023-01-26T02:52:15.772Z,88.10
2023-01-26T02:55:01.885Z,85.77
2023-01-26T02:57:32.093Z,82.83
2023-01-26T03:00:00.499Z,81.10
2023-01-26T03:02:28.990Z,90.93
2023-01-26T03:04:57.319Z,86.40
2023-01-26T03:07:25.813Z,82.00
2023-01-26T03:09:54.439Z,85.67
2023-01-26T03:12:22.877Z,93.50
2023-01-26T03:15:16.448Z,79.23
2023-01-26T03:17:44.903Z,77.30
2023-01-26T03:20:30.738Z,76.07
2023-01-26T03:23:16.929Z,81.60
2023-01-26T03:26:03.035Z,77.27
2023-01-26T03:28:31.562Z,81.63
2023-01-26T03:31:01.357Z,84.63
2023-01-26T03:33:29.878Z,75.93
2023-01-26T03:35:58.243Z,80.50
2023-01-26T03:38:26.705Z,83.73
2023-01-26T03:41:16.730Z,71.20
2023-01-26T03:44:02.548Z,71.93
2023-01-26T03:46:49.737Z,77.40
2023-01-26T03:49:35.817Z,77.63
2023-01-26T03:52:22.152Z,73.30
2023-01-26T03:55:08.298Z,75.20
2023-01-26T03:57:36.712Z,81.73
2023-01-26T04:00:06.238Z,76.50
2023-01-26T04:02:53.561Z,77.83
2023-01-26T04:05:39.406Z,75.50
2023-01-26T04:08:24.051Z,75.13
2023-01-26T04:10:52.680Z,73.73
2023-01-26T04:13:38.825Z,71.73
2023-01-26T04:16:25.117Z,79.37
2023-01-26T04:19:12.785Z,77.63
2023-01-26T04:21:41.175Z,76.87
2023-01-26T04:24:16.779Z,78.93
2023-01-26T04:26:45.605Z,78.50
2023-01-26T04:29:14.420Z,80.13
2023-01-26T04:31:43.132Z,80.37
2023-01-26T04:34:13.854Z,72.77
2023-01-26T04:36:42.278Z,78.10
2023-01-26T04:39:10.667Z,75.33
2023-01-26T04:41:41.300Z,76.20
2023-01-26T04:44:10.597Z,86.93
2023-01-26T04:46:39.025Z,90.40
2023-01-26T04:49:07.536Z,87.57
2023-01-26T04:51:37.364Z,88.60
2023-01-26T04:54:06.233Z,83.97
2023-01-26T04:56:35.169Z,83.37
2023-01-26T04:59:04.033Z,82.30
2023-01-26T05:01:32.407Z,79.00
2023-01-26T05:04:01.086Z,86.50
2023-01-26T05:06:29.494Z,80.53
2023-01-26T05:08:59.337Z,81.80
2023-01-26T05:11:27.912Z,77.63
2023-01-26T05:13:56.274Z,79.50
2023-01-26T05:16:24.910Z,77.30
2023-01-26T05:18:53.322Z,76.77
2023-01-26T05:21:24.605Z,89.27
2023-01-26T05:23:53.135Z,75.23
2023-01-26T05:26:22.939Z,72.90
2023-01-26T05:28:51.346Z,67.30
2023-01-26T05:31:19.688Z,73.53
2023-01-26T05:33:48.100Z,77.33
2023-01-26T05:36:16.576Z,72.57
2023-01-26T05:38:44.879Z,72.23
2023-01-26T05:41:13.362Z,68.13
2023-01-26T05:43:43.184Z,64.87
2023-01-26T05:46:11.618Z,73.17
2023-01-26T05:48:40.119Z,62.27
2023-01-26T05:51:08.691Z,65.43
2023-01-26T05:53:37.236Z,65.10
2023-01-26T05:56:05.793Z,58.77
2023-01-26T05:58:34.161Z,65.60
2023-01-26T06:01:06.971Z,57.57
2023-01-26T06:03:35.382Z,57.33
2023-01-26T06:06:03.799Z,54.93
2023-01-26T06:08:32.309Z,56.30
2023-01-26T06:11:01.415Z,54.33
2023-01-26T06:13:29.881Z,47.80
2023-01-26T06:15:58.223Z,49.70
2023-01-26T06:18:27.893Z,49.70
2023-01-26T06:20:56.361Z,58.90
2023-01-26T06:23:24.798Z,46.80
2023-01-26T06:25:53.238Z,41.73
2023-01-26T06:28:21.650Z,41.97
2023-01-26T06:30:50.153Z,47.13
2023-01-26T06:33:18.777Z,40.37
2023-01-26T06:35:48.556Z,50.63
2023-01-26T06:38:16.981Z,33.23
2023-01-26T06:40:45.385Z,38.07
2023-01-26T06:43:16.860Z,35.10
2023-01-26T06:45:47.081Z,36.87
2023-01-26T06:48:15.642Z,40.20
2023-01-26T06:50:44.274Z,36.83
2023-01-26T06:53:26.856Z,38.27
2023-01-26T06:55:55.233Z,53.43
2023-01-26T06:58:23.602Z,44.77
2023-01-26T07:00:52.039Z,33.27
2023-01-26T07:03:20.741Z,45.37
2023-01-26T07:05:49.157Z,64.87
2023-01-26T07:08:17.645Z,41.27
2023-01-26T07:10:50.393Z,60.43
2023-01-26T07:13:18.817Z,29.90
2023-01-26T07:15:47.366Z,53.03
2023-01-26T07:18:15.711Z,43.77
2023-01-26T07:20:44.105Z,33.63
2023-01-26T07:23:12.432Z,44.87
2023-01-26T07:25:40.939Z,35.57
2023-01-26T07:28:11.269Z,38.80
2023-01-26T07:30:39.858Z,29.37
2023-01-26T07:33:11.361Z,36.53
2023-01-26T07:35:39.803Z,24.67
2023-01-26T07:38:08.307Z,36.50
2023-01-26T07:40:42.505Z,37.40
2023-01-26T07:43:15.549Z,33.53
2023-01-26T07:45:46.686Z,31.87
2023-01-26T07:48:15.768Z,26.67
2023-01-26T07:50:45.299Z,24.57
2023-01-26T07:53:15.351Z,38.13
2023-01-26T07:55:46.895Z,40.57
2023-01-26T07:58:18.102Z,29.97
2023-01-26T08:00:47.898Z,38.00
2023-01-26T08:03:16.315Z,33.97
2023-01-26T08:05:44.683Z,40.07
2023-01-26T08:08:13.804Z,24.27
2023-01-26T08:10:42.334Z,34.50
2023-01-26T08:13:10.774Z,34.40
2023-01-26T08:15:40.729Z,38.07
2023-01-26T08:18:09.099Z,30.57
2023-01-26T08:20:37.624Z,48.60
2023-01-26T08:23:06.132Z,36.73
2023-01-26T08:25:34.514Z,23.17
2023-01-26T08:28:03.504Z,29.37
2023-01-26T08:30:31.886Z,29.30
2023-01-26T08:33:02.343Z,33.63
2023-01-26T08:35:33.795Z,27.80
2023-01-26T08:38:02.189Z,33.40
2023-01-26T08:40:30.603Z,34.10
2023-01-26T08:43:01.584Z,37.93
2023-01-26T08:45:32.114Z,40.40
2023-01-26T08:48:01.879Z,35.70
2023-01-26T08:50:32.795Z,34.77
2023-01-26T08:53:05.857Z,31.30
2023-01-26T08:55:34.315Z,37.27
2023-01-26T08:58:05.790Z,31.77
2023-01-26T09:00:34.236Z,34.67
2023-01-26T09:03:04.317Z,31.90
2023-01-26T09:05:33.672Z,47.70
2023-01-26T09:08:02.030Z,39.63
2023-01-26T09:10:33.624Z,36.43
2023-01-26T09:13:02.120Z,42.63
2023-01-26T09:15:30.476Z,38.80
2023-01-26T09:18:00.840Z,34.07
2023-01-26T09:20:34.192Z,43.80
2023-01-26T09:23:02.630Z,34.43
2023-01-26T09:25:30.954Z,31.83
2023-01-26T09:28:05.473Z,33.93
2023-01-26T09:30:34.091Z,36.20
2023-01-26T09:33:03.822Z,34.00
2023-01-26T09:35:36.873Z,36.67
2023-01-26T09:38:05.309Z,33.30
2023-01-26T09:40:37.907Z,32.20
2023-01-26T09:43:12.823Z,36.40
2023-01-26T09:45:46.310Z,34.87
2023-01-26T09:48:19.010Z,34.80
2023-01-26T09:50:53.503Z,41.10
2023-01-26T09:53:22.376Z,34.27
2023-01-26T09:55:50.778Z,34.80
2023-01-26T09:58:25.588Z,25.93
2023-01-26T10:00:57.240Z,35.63
2023-01-26T10:03:27.089Z,33.20
2023-01-26T10:05:59.141Z,40.73
2023-01-26T10:08:33.771Z,31.67
2023-01-26T10:11:06.316Z,32.77
2023-01-26T10:13:34.734Z,31.00
2023-01-26T10:16:03.789Z,32.33
2023-01-26T10:18:32.535Z,31.93
2023-01-26T10:21:05.875Z,26.73
2023-01-26T10:23:34.558Z,33.33
2023-01-26T10:26:04.541Z,16.83
2023-01-26T10:28:33.317Z,38.83
2023-01-26T10:31:01.852Z,28.77
2023-01-26T10:33:33.995Z,24.33
2023-01-26T10:36:02.773Z,20.30
2023-01-26T10:38:42.300Z,22.37
2023-01-26T10:41:22.328Z,21.87
2023-01-26T10:43:52.195Z,22.90
2023-01-26T10:46:27.467Z,22.77
2023-01-26T10:48:56.196Z,30.03
2023-01-26T10:51:27.138Z,25.17
2023-01-26T10:54:14.414Z,24.50
2023-01-26T10:56:46.934Z,17.87
2023-01-26T10:59:15.997Z,20.00
2023-01-26T11:01:54.222Z,21.40
2023-01-26T11:04:22.717Z,28.37
2023-01-26T11:06:51.669Z,20.70
2023-01-26T11:09:20.662Z,22.90
2023-01-26T11:12:00.688Z,22.80
2023-01-26T11:14:29.492Z,19.87
2023-01-26T11:17:02.114Z,19.37
2023-01-26T11:19:35.116Z,23.67
2023-01-26T11:22:04.671Z,22.13
2023-01-26T11:24:34.615Z,18.60
2023-01-26T11:27:17.118Z,20.30
2023-01-26T11:29:58.128Z,22.17
2023-01-26T11:32:28.115Z,20.93
2023-01-26T11:35:00.449Z,19.63
2023-01-26T11:37:43.803Z,25.53
2023-01-26T11:40:16.465Z,18.60
2023-01-26T11:42:47.225Z,17.27
2023-01-26T11:45:19.965Z,22.53
2023-01-26T11:47:52.139Z,20.43
2023-01-26T11:50:23.664Z,13.73
2023-01-26T11:52:54.958Z,15.37
2023-01-26T11:55:26.977Z,14.87
2023-01-26T11:58:01.937Z,19.10
2023-01-26T12:00:32.946Z,16.23
2023-01-26T12:03:02.821Z,15.93
2023-01-26T12:05:32.004Z,22.50
2023-01-26T12:08:01.718Z,17.17
2023-01-26T12:10:31.150Z,21.87
2023-01-26T12:13:03.091Z,16.53
2023-01-26T12:15:33.305Z,12.07
2023-01-26T12:18:15.504Z,18.33
2023-01-26T12:20:45.598Z,16.43
2023-01-26T12:23:18.283Z,16.03
2023-01-26T12:25:47.282Z,18.60
2023-01-26T12:28:19.063Z,14.60
2023-01-26T12:30:52.063Z,21.60
2023-01-26T12:33:23.280Z,24.30
2023-01-26T12:36:12.823Z,25.87
2023-01-26T12:38:45.627Z,19.57
2023-01-26T12:41:16.444Z,23.47
2023-01-26T12:43:49.473Z,22.63
2023-01-26T12:46:18.060Z,21.17
2023-01-26T12:48:47.723Z,22.33
2023-01-26T12:51:17.744Z,17.73
2023-01-26T12:53:47.985Z,17.93
2023-01-26T12:56:17.281Z,14.33
2023-01-26T12:58:47.019Z,23.27
2023-01-26T13:01:17.780Z,15.73
2023-01-26T13:03:46.756Z,14.27
2023-01-26T13:06:21.952Z,21.27
2023-01-26T13:08:53.901Z,18.70
2023-01-26T13:11:48.462Z,17.63
2023-01-26T13:14:32.985Z,21.60
2023-01-26T13:17:17.341Z,20.93
2023-01-26T13:19:54.383Z,14.30
2023-01-26T13:22:41.777Z,22.43
2023-01-26T13:25:18.428Z,22.47
2023-01-26T13:27:47.226Z,16.97
2023-01-26T13:30:39.500Z,15.30
2023-01-26T13:33:11.546Z,18.53
2023-01-26T13:35:41.601Z,12.83
2023-01-26T13:38:13.104Z,15.77
2023-01-26T13:40:42.392Z,15.60
2023-01-26T13:43:25.913Z,18.37
2023-01-26T13:46:00.760Z,18.33
2023-01-26T13:48:34.986Z,15.87
2023-01-26T13:51:05.123Z,15.93
2023-01-26T13:53:35.961Z,17.47
2023-01-26T13:56:04.837Z,15.20
2023-01-26T13:58:33.935Z,16.57
2023-01-26T14:01:02.805Z,17.97
2023-01-26T14:03:31.354Z,10.93
2023-01-26T14:06:00.947Z,16.97
2023-01-26T14:08:31.077Z,18.63
2023-01-26T14:10:59.638Z,16.40
2023-01-26T14:13:31.595Z,20.67
2023-01-26T14:16:00.816Z,14.97
2023-01-26T14:18:32.416Z,12.17
2023-01-26T14:21:01.310Z,17.60
2023-01-26T14:23:33.826Z,13.83
2023-01-26T14:26:02.975Z,13.03
2023-01-26T14:28:32.297Z,12.47
2023-01-26T14:31:05.728Z,19.27
2023-01-26T14:33:36.019Z,12.60
2023-01-26T14:36:05.011Z,10.60
2023-01-26T14:38:43.693Z,10.83
2023-01-26T14:41:13.107Z,14.07
2023-01-26T14:43:42.514Z,11.00
2023-01-26T14:46:11.611Z,14.27
2023-01-26T14:48:40.891Z,16.73
2023-01-26T14:51:09.529Z,17.63
2023-01-26T14:53:39.252Z,14.60
2023-01-26T14:56:07.776Z,18.47
2023-01-26T14:58:36.320Z,14.00
2023-01-26T15:01:04.989Z,15.53
2023-01-26T15:03:37.375Z,12.37
2023-01-26T15:06:16.955Z,20.33
2023-01-26T15:08:55.142Z,17.53
2023-01-26T15:11:46.213Z,17.23
2023-01-26T15:14:35.291Z,16.60
2023-01-26T15:17:03.655Z,15.93
2023-01-26T15:19:40.659Z,14.93
2023-01-26T15:22:18.688Z,14.47
2023-01-26T15:24:48.746Z,11.57
2023-01-26T15:27:17.263Z,11.87
2023-01-26T15:29:45.684Z,19.53
2023-01-26T15:32:28.055Z,14.43
2023-01-26T15:35:04.930Z,16.53
2023-01-26T15:37:39.583Z,10.23
2023-01-26T15:40:10.850Z,13.87
2023-01-26T15:42:47.490Z,15.03
2023-01-26T15:45:19.501Z,12.80
2023-01-26T15:47:48.145Z,11.97
2023-01-26T15:50:27.458Z,15.83
2023-01-26T15:52:56.611Z,12.33
2023-01-26T15:55:29.361Z,11.60
2023-01-26T15:57:57.961Z,9.00
2023-01-26T16:00:26.655Z,11.97
2023-01-26T16:02:55.127Z,10.03
2023-01-26T16:05:24.025Z,9.60
2023-01-26T16:07:52.786Z,8.77
2023-01-26T16:10:21.385Z,10.77
2023-01-26T16:12:54.318Z,5.70
2023-01-26T16:15:25.367Z,12.97
2023-01-26T16:17:53.767Z,9.77
2023-01-26T16:20:28.552Z,12.47
2023-01-26T16:22:57.089Z,10.50
2023-01-26T16:25:26.248Z,15.87
2023-01-26T16:27:56.206Z,11.13
2023-01-26T16:30:24.856Z,13.40
2023-01-26T16:32:54.155Z,11.60
2023-01-26T16:35:23.562Z,13.23
2023-01-26T16:37:55.070Z,11.30
2023-01-26T16:40:27.192Z,12.00
2023-01-26T16:42:57.395Z,17.20
2023-01-26T16:45:27.514Z,18.60
2023-01-26T16:47:56.830Z,13.00
2023-01-26T16:50:25.518Z,12.70
2023-01-26T16:52:58.818Z,13.43
2023-01-26T16:55:27.347Z,11.77
2023-01-26T16:57:57.447Z,10.50
2023-01-26T17:00:26.138Z,11.30
2023-01-26T17:02:55.084Z,13.33
2023-01-26T17:05:34.294Z,12.37
2023-01-26T17:08:03.028Z,14.13
2023-01-26T17:10:31.835Z,9.67
2023-01-26T17:13:03.027Z,16.57
2023-01-26T17:15:31.653Z,9.07
2023-01-26T17:18:00.250Z,15.27
2023-01-26T17:20:29.307Z,10.43
2023-01-26T17:22:57.981Z,20.50
2023-01-26T17:25:29.560Z,12.40
2023-01-26T17:28:06.584Z,16.17
2023-01-26T17:30:36.980Z,12.60
2023-01-26T17:33:05.699Z,14.63
2023-01-26T17:35:34.309Z,15.67
2023-01-26T17:38:11.828Z,14.50
2023-01-26T17:40:40.798Z,12.73
2023-01-26T17:43:09.279Z,18.07
2023-01-26T17:45:39.295Z,15.80
2023-01-26T17:48:08.229Z,15.13
2023-01-26T17:50:39.601Z,16.97
2023-01-26T17:53:08.075Z,14.93
2023-01-26T17:55:37.567Z,12.67
2023-01-26T17:58:10.988Z,19.47
2023-01-26T18:00:43.842Z,17.47
2023-01-26T18:03:14.862Z,9.00
2023-01-26T18:05:52.041Z,9.00
2023-01-26T18:08:23.706Z,10.23
2023-01-26T18:10:52.100Z,15.10
2023-01-26T18:13:21.256Z,9.83
2023-01-26T18:15:52.327Z,13.23
2023-01-26T18:18:20.821Z,10.50
2023-01-26T18:20:49.205Z,13.23
2023-01-26T18:23:17.719Z,12.37
2023-01-26T18:25:46.275Z,15.30
2023-01-26T18:28:14.793Z,8.70
2023-01-26T18:30:43.236Z,10.40
2023-01-26T18:33:13.088Z,8.00
2023-01-26T18:35:41.580Z,7.90
2023-01-26T18:38:10.206Z,7.47
2023-01-26T18:40:43.350Z,16.37
2023-01-26T18:43:11.906Z,10.17
2023-01-26T18:45:43.001Z,12.27
2023-01-26T18:48:12.785Z,9.27
2023-01-26T18:50:41.292Z,7.03
2023-01-26T18:53:09.917Z,11.73
2023-01-26T18:55:38.573Z,12.27
2023-01-26T18:58:08.106Z,10.43
2023-01-26T19:00:36.753Z,12.40
2023-01-26T19:03:05.357Z,11.23
2023-01-26T19:05:35.248Z,9.17
2023-01-26T19:08:10.421Z,11.60
2023-01-26T19:10:39.724Z,10.97
2023-01-26T19:13:08.330Z,18.50
2023-01-26T19:15:37.012Z,9.80
2023-01-26T19:18:05.956Z,11.77
2023-01-26T19:20:37.153Z,8.83
2023-01-26T19:23:06.246Z,18.80
2023-01-26T19:25:37.136Z,10.13
2023-01-26T19:28:08.266Z,14.27
2023-01-26T19:30:37.140Z,14.77
2023-01-26T19:33:28.459Z,8.70
2023-01-26T19:35:58.588Z,9.53
2023-01-26T19:38:27.319Z,15.40
2023-01-26T19:40:56.423Z,12.87
2023-01-26T19:43:25.122Z,11.30
2023-01-26T19:45:54.111Z,12.10
2023-01-26T19:48:22.773Z,18.03
2023-01-26T19:51:05.892Z,15.93
2023-01-26T19:53:34.493Z,14.50
2023-01-26T19:56:06.955Z,17.07
2023-01-26T19:58:36.326Z,14.37
2023-01-26T20:01:05.755Z,15.17
2023-01-26T20:03:34.622Z,16.10
2023-01-26T20:06:03.421Z,12.57
2023-01-26T20:08:33.356Z,13.10
2023-01-26T20:11:05.772Z,13.83
2023-01-26T20:13:34.317Z,10.13
2023-01-26T20:16:02.878Z,16.20
2023-01-26T20:18:31.438Z,11.47
2023-01-26T20:21:01.061Z,10.17
2023-01-26T20:23:31.777Z,18.37
2023-01-26T20:26:05.099Z,10.03
2023-01-26T20:28:33.660Z,9.73
2023-01-26T20:31:07.712Z,15.47
2023-01-26T20:33:39.307Z,14.93
2023-01-26T20:36:08.526Z,18.63
2023-01-26T20:38:37.089Z,14.47
2023-01-26T20:41:09.640Z,13.87
2023-01-26T20:43:39.670Z,15.03
2023-01-26T20:46:10.479Z,23.53
2023-01-26T20:48:38.980Z,14.30
2023-01-26T20:51:11.062Z,15.57
2023-01-26T20:53:40.127Z,9.53
2023-01-26T20:56:11.789Z,13.80
2023-01-26T20:58:40.556Z,20.43
2023-01-26T21:01:09.350Z,18.63
2023-01-26T21:03:38.103Z,20.47
2023-01-26T21:06:07.199Z,19.37
2023-01-26T21:08:36.759Z,15.30
2023-01-26T21:11:12.525Z,15.57
2023-01-26T21:13:42.445Z,21.77
2023-01-26T21:16:11.187Z,19.80
2023-01-26T21:18:39.755Z,17.50
2023-01-26T21:21:11.325Z,19.37
2023-01-26T21:23:39.940Z,25.73
2023-01-26T21:26:14.483Z,15.27
2023-01-26T21:28:43.153Z,22.43
2023-01-26T21:31:18.651Z,18.60
2023-01-26T21:33:47.733Z,25.20
2023-01-26T21:36:16.753Z,24.33
2023-01-26T21:38:45.688Z,19.53
2023-01-26T21:41:33.374Z,15.90
2023-01-26T21:44:02.183Z,23.80
2023-01-26T21:46:30.949Z,28.13
2023-01-26T21:48:59.388Z,15.90
2023-01-26T21:51:56.921Z,25.53
2023-01-26T21:54:25.359Z,20.53
2023-01-26T21:56:55.212Z,20.73
2023-01-26T21:59:23.180Z,19.73
2023-01-26T22:01:52.448Z,17.70
2023-01-26T22:04:21.469Z,18.23
2023-01-26T22:06:49.915Z,23.50
2023-01-26T22:09:18.805Z,16.97
2023-01-26T22:11:50.959Z,17.17
2023-01-26T22:14:21.629Z,18.83
2023-01-26T22:16:50.575Z,20.70
2023-01-26T22:19:19.017Z,27.67
2023-01-26T22:21:47.905Z,20.77
2023-01-26T22:24:18.078Z,22.80
2023-01-26T22:26:47.110Z,23.37
2023-01-26T22:29:17.975Z,17.07
2023-01-26T22:31:47.824Z,26.30
2023-01-26T22:34:16.637Z,15.60
2023-01-26T22:36:45.336Z,20.37
2023-01-26T22:39:14.017Z,17.93
2023-01-26T22:41:44.326Z,22.80
2023-01-26T22:44:12.728Z,16.83
2023-01-26T22:46:41.209Z,18.50
2023-01-26T22:49:11.577Z,21.10
2023-01-26T22:51:41.223Z,19.77
2023-01-26T22:54:09.711Z,23.07
2023-01-26T22:56:38.279Z,23.70
2023-01-26T22:59:06.724Z,24.67
2023-01-26T23:01:35.251Z,27.20
2023-01-26T23:04:03.792Z,21.73
2023-01-26T23:06:33.634Z,17.83
2023-01-26T23:09:04.785Z,24.23
2023-01-26T23:11:33.685Z,20.30
2023-01-26T23:14:02.135Z,22.57
2023-01-26T23:16:30.715Z,28.57
2023-01-26T23:18:59.809Z,17.60
2023-01-26T23:21:28.648Z,22.73
2023-01-26T23:23:58.885Z,32.50
2023-01-26T23:26:27.596Z,21.73
2023-01-26T23:28:55.966Z,28.40
2023-01-26T23:31:24.424Z,25.93
2023-01-26T23:33:52.975Z,23.23
2023-01-26T23:36:21.747Z,30.40
2023-01-26T23:38:50.319Z,22.27
2023-01-26T23:41:20.076Z,21.37
2023-01-26T23:43:48.733Z,29.30
2023-01-26T23:46:17.437Z,24.90
2023-01-26T23:48:45.898Z,21.40
2023-01-26T23:51:17.657Z,19.97
2023-01-26T23:53:46.100Z,22.40
2023-01-26T23:56:15.769Z,24.47
2023-01-26T23:58:45.879Z,26.50
